createdAt,value
2023-02-14T00:00:51.651Z,55.20
2023-02-14T00:03:18.936Z,56.83
2023-02-14T00:05:46.427Z,54.33
2023-02-14T00:08:14.166Z,60.22
2023-02-14T00:10:41.138Z,61.97
2023-02-14T00:13:08.117Z,53.63
2023-02-14T00:15:35.506Z,57.67
2023-02-14T00:18:03.619Z,58.88
2023-02-14T00:20:30.549Z,67.10
2023-02-14T00:22:57.527Z,61.35
2023-02-14T00:25:24.934Z,67.88
2023-02-14T00:27:51.836Z,66.68
2023-02-14T00:30:19.017Z,63.72
2023-02-14T00:32:46.197Z,66.60
2023-02-14T00:35:13.446Z,70.70
2023-02-14T00:37:41.388Z,70.47
2023-02-14T00:40:09.235Z,61.65
2023-02-14T00:42:36.307Z,68.43
2023-02-14T00:45:03.176Z,68.25
2023-02-14T00:47:30.584Z,72.13
2023-02-14T00:50:03.109Z,82.88
2023-02-14T00:52:31.219Z,70.63
2023-02-14T00:54:58.563Z,65.95
2023-02-14T00:57:25.667Z,65.57
2023-02-14T00:59:52.638Z,66.80
2023-02-14T01:02:20.943Z,64.35
2023-02-14T01:04:47.997Z,65.88
2023-02-14T01:07:15.367Z,66.63
2023-02-14T01:09:42.627Z,69.90
2023-02-14T01:12:09.757Z,64.93
2023-02-14T01:14:36.625Z,60.83
2023-02-14T01:17:03.701Z,63.35
2023-02-14T01:19:31.090Z,74.30
2023-02-14T01:21:58.053Z,72.72
2023-02-14T01:24:26.483Z,66.35
2023-02-14T01:26:53.416Z,60.97
2023-02-14T01:29:20.546Z,68.78
2023-02-14T01:31:49.424Z,61.28
2023-02-14T01:34:17.544Z,68.32
2023-02-14T01:36:46.885Z,69.57
2023-02-14T01:39:15.520Z,79.32
2023-02-14T01:41:48.837Z,72.22
2023-02-14T01:44:17.077Z,63.80
2023-02-14T01:46:45.468Z,70.22
2023-02-14T01:49:18.881Z,69.38
2023-02-14T01:52:03.968Z,69.20
2023-02-14T01:54:32.531Z,65.28
2023-02-14T01:57:03.612Z,70.30
2023-02-14T01:59:35.041Z,67.97
2023-02-14T02:02:02.491Z,69.68
2023-02-14T02:04:36.373Z,70.88
2023-02-14T02:07:06.167Z,64.10
2023-02-14T02:09:36.785Z,62.13
2023-02-14T02:12:04.503Z,68.82
2023-02-14T02:14:32.416Z,68.30
2023-02-14T02:17:08.431Z,77.32
2023-02-14T02:19:57.371Z,62.00
2023-02-14T02:22:56.654Z,60.38
2023-02-14T02:25:34.032Z,62.63
2023-02-14T02:28:04.085Z,64.90
2023-02-14T02:30:50.908Z,82.28
2023-02-14T02:33:55.612Z,64.65
2023-02-14T02:38:55.642Z,57.70
2023-02-14T02:41:44.132Z,70.22
2023-02-14T02:44:32.113Z,71.00
2023-02-14T02:47:20.100Z,57.78
2023-02-14T02:50:38.001Z,68.80
2023-02-14T02:53:33.694Z,62.88
2023-02-14T02:56:31.676Z,71.07
2023-02-14T02:59:37.404Z,70.43
2023-02-14T03:02:04.471Z,54.30
2023-02-14T03:04:52.022Z,66.03
2023-02-14T03:07:35.248Z,66.43
2023-02-14T03:10:13.061Z,71.25
2023-02-14T03:13:18.062Z,64.10
2023-02-14T03:16:03.297Z,73.93
2023-02-14T03:18:52.111Z,63.35
2023-02-14T03:21:27.031Z,55.35
2023-02-14T03:23:58.225Z,61.72
2023-02-14T03:26:35.671Z,64.78
2023-02-14T03:29:30.235Z,70.53
2023-02-14T03:32:12.035Z,59.92
2023-02-14T03:34:46.496Z,63.13
2023-02-14T03:37:28.813Z,73.35
2023-02-14T03:40:14.091Z,71.03
2023-02-14T03:42:50.706Z,74.85
2023-02-14T03:45:24.013Z,84.78
2023-02-14T03:47:52.113Z,66.10
2023-02-14T03:50:20.333Z,67.90
2023-02-14T03:52:50.294Z,62.08
2023-02-14T03:55:21.774Z,76.47
2023-02-14T03:57:55.965Z,73.47
2023-02-14T04:00:23.042Z,68.13
2023-02-14T04:03:02.544Z,69.20
2023-02-14T04:05:29.550Z,65.35
2023-02-14T04:07:57.747Z,69.00
2023-02-14T04:10:25.652Z,72.32
2023-02-14T04:12:53.345Z,67.35
2023-02-14T04:15:20.530Z,69.63
2023-02-14T04:18:06.405Z,66.05
2023-02-14T04:20:34.440Z,60.33
2023-02-14T04:23:03.330Z,59.33
2023-02-14T04:25:30.942Z,57.92
2023-02-14T04:27:57.841Z,65.25
2023-02-14T04:30:25.125Z,69.25
2023-02-14T04:32:52.218Z,72.75
2023-02-14T04:35:19.555Z,70.85
2023-02-14T04:37:46.615Z,78.68
2023-02-14T04:40:17.349Z,71.95
2023-02-14T04:42:45.439Z,76.10
2023-02-14T04:45:12.795Z,76.15
2023-02-14T04:47:40.418Z,68.63
2023-02-14T04:50:08.082Z,71.20
2023-02-14T04:52:35.033Z,71.32
2023-02-14T04:55:02.377Z,70.70
2023-02-14T04:57:29.541Z,69.85
2023-02-14T04:59:56.809Z,60.35
2023-02-14T05:02:24.269Z,77.13
2023-02-14T05:04:51.912Z,56.97
2023-02-14T05:07:19.438Z,58.38
2023-02-14T05:09:46.387Z,54.33
2023-02-14T05:12:13.780Z,55.72
2023-02-14T05:14:40.597Z,64.43
2023-02-14T05:17:07.763Z,57.78
2023-02-14T05:19:34.728Z,61.85
2023-02-14T05:22:01.650Z,61.20
2023-02-14T05:24:29.129Z,60.63
2023-02-14T05:26:55.936Z,59.28
2023-02-14T05:29:23.345Z,58.67
2023-02-14T05:31:50.663Z,62.80
2023-02-14T05:34:19.085Z,60.88
2023-02-14T05:36:46.318Z,57.85
2023-02-14T05:39:14.835Z,56.10
2023-02-14T05:41:42.217Z,60.08
2023-02-14T05:44:09.184Z,55.08
2023-02-14T05:46:36.228Z,63.53
2023-02-14T05:49:04.117Z,57.40
2023-02-14T05:51:31.788Z,50.38
2023-02-14T05:54:02.808Z,49.88
2023-02-14T05:56:30.050Z,61.03
2023-02-14T05:58:57.301Z,53.20
2023-02-14T06:01:24.645Z,55.10
2023-02-14T06:03:51.489Z,56.33
2023-02-14T06:06:19.032Z,69.43
2023-02-14T06:08:46.380Z,72.05
2023-02-14T06:11:13.864Z,67.13
2023-02-14T06:13:41.757Z,62.75
2023-02-14T06:16:08.759Z,69.03
2023-02-14T06:18:36.134Z,71.03
2023-02-14T06:21:03.531Z,76.28
2023-02-14T06:23:30.895Z,73.32
2023-02-14T06:25:58.056Z,70.45
2023-02-14T06:28:25.352Z,61.35
2023-02-14T06:30:52.626Z,78.97
2023-02-14T06:33:20.411Z,82.97
2023-02-14T06:35:47.348Z,71.63
2023-02-14T06:38:14.544Z,75.00
2023-02-14T06:40:41.591Z,73.45
2023-02-14T06:43:08.318Z,76.28
2023-02-14T06:45:35.036Z,79.55
2023-02-14T06:48:01.912Z,89.35
2023-02-14T06:50:28.770Z,83.47
2023-02-14T06:52:55.502Z,100.75
2023-02-14T06:55:22.294Z,87.57
2023-02-14T06:57:49.734Z,89.20
2023-02-14T07:00:17.554Z,73.45
2023-02-14T07:02:44.467Z,84.30
2023-02-14T07:05:11.193Z,88.47
2023-02-14T07:07:38.014Z,92.82
2023-02-14T07:10:05.297Z,98.35
2023-02-14T07:12:32.191Z,86.78
2023-02-14T07:14:58.840Z,99.00
2023-02-14T07:17:26.116Z,92.95
2023-02-14T07:19:52.854Z,83.13
2023-02-14T07:22:19.704Z,97.60
2023-02-14T07:24:47.051Z,85.65
2023-02-14T07:27:13.806Z,83.80
2023-02-14T07:29:40.618Z,96.35
2023-02-14T07:32:07.820Z,97.28
2023-02-14T07:34:35.568Z,79.82
2023-02-14T07:37:03.054Z,75.68
2023-02-14T07:39:30.418Z,70.47
2023-02-14T07:41:57.551Z,76.70
2023-02-14T07:44:26.820Z,80.90
2023-02-14T07:46:53.756Z,61.70
2023-02-14T07:49:20.862Z,68.18
2023-02-14T07:51:48.462Z,66.45
2023-02-14T07:54:16.102Z,65.30
2023-02-14T07:56:42.862Z,97.03
2023-02-14T07:59:10.187Z,114.65
2023-02-14T08:01:37.507Z,122.50
2023-02-14T08:04:04.774Z,134.07
2023-02-14T08:06:32.061Z,151.52
2023-02-14T08:08:58.869Z,188.02
2023-02-14T08:11:44.116Z,228.32
2023-02-14T08:14:10.811Z,143.95
2023-02-14T08:16:38.388Z,346.50
2023-02-14T08:19:05.150Z,155.18
2023-02-14T08:21:32.467Z,202.52
2023-02-14T08:23:59.375Z,181.30
2023-02-14T08:26:27.028Z,154.18
2023-02-14T08:28:54.497Z,123.78
2023-02-14T08:31:35.258Z,140.15
2023-02-14T08:34:04.724Z,163.07
2023-02-14T08:36:31.806Z,139.13
2023-02-14T08:38:58.601Z,219.85
2023-02-14T08:41:25.749Z,132.52
2023-02-14T08:43:52.523Z,161.27
2023-02-14T08:46:19.806Z,148.05
2023-02-14T08:48:46.661Z,134.68
2023-02-14T08:51:15.298Z,136.07
2023-02-14T08:53:43.431Z,261.58
2023-02-14T08:56:13.049Z,227.50
2023-02-14T08:58:40.780Z,146.02
2023-02-14T09:01:17.056Z,143.35
2023-02-14T09:03:45.092Z,157.43
2023-02-14T09:06:17.786Z,209.68
2023-02-14T09:08:45.505Z,152.50
2023-02-14T09:11:15.761Z,154.35
2023-02-14T09:13:43.744Z,164.88
2023-02-14T09:16:12.587Z,181.65
2023-02-14T09:18:40.194Z,174.50
2023-02-14T09:21:09.418Z,140.45
2023-02-14T09:23:36.779Z,124.07
2023-02-14T09:26:05.916Z,119.50
2023-02-14T09:28:33.065Z,136.70
2023-02-14T09:31:16.000Z,143.00
2023-02-14T09:34:02.108Z,128.45
2023-02-14T09:36:48.133Z,136.70
2023-02-14T09:39:15.586Z,166.57
2023-02-14T09:42:15.377Z,144.95
2023-02-14T09:44:45.268Z,126.15
2023-02-14T09:47:40.053Z,130.02
2023-02-14T09:50:15.026Z,110.88
2023-02-14T09:52:42.370Z,85.03
2023-02-14T09:55:15.917Z,79.78
2023-02-14T09:57:59.570Z,66.95
2023-02-14T10:00:34.434Z,65.95
2023-02-14T10:03:34.643Z,63.45
2023-02-14T10:06:35.498Z,60.88
2023-02-14T10:09:28.689Z,60.05
2023-02-14T10:11:58.937Z,72.45
2023-02-14T10:14:30.012Z,57.33
2023-02-14T10:17:02.372Z,62.75
2023-02-14T10:19:33.649Z,62.60
2023-02-14T10:22:11.414Z,60.28
2023-02-14T10:24:51.194Z,61.47
2023-02-14T10:27:42.443Z,59.60
2023-02-14T10:30:19.241Z,59.47
2023-02-14T10:32:57.153Z,62.45
2023-02-14T10:35:46.175Z,58.17
2023-02-14T10:38:41.885Z,57.90
2023-02-14T10:41:17.934Z,59.95
2023-02-14T10:44:23.736Z,55.15
2023-02-14T10:47:06.269Z,59.03
2023-02-14T10:49:45.558Z,57.92
2023-02-14T10:52:26.138Z,60.40
2023-02-14T10:54:58.948Z,59.80
2023-02-14T10:57:30.650Z,60.63
2023-02-14T11:00:01.270Z,61.97
2023-02-14T11:02:35.388Z,63.15
2023-02-14T11:05:04.509Z,56.20
2023-02-14T11:07:31.854Z,57.30
2023-02-14T11:09:59.380Z,64.35
2023-02-14T11:12:35.292Z,58.60
2023-02-14T11:15:21.200Z,60.67
2023-02-14T11:17:48.850Z,60.90
2023-02-14T11:20:30.647Z,58.95
2023-02-14T11:22:57.865Z,59.83
2023-02-14T11:25:27.479Z,58.05
2023-02-14T11:28:03.471Z,57.67
2023-02-14T11:30:36.137Z,58.42
2023-02-14T11:33:04.608Z,52.90
2023-02-14T11:35:35.637Z,53.92
2023-02-14T11:38:07.086Z,48.25
2023-02-14T11:40:39.619Z,55.58
2023-02-14T11:45:44.700Z,54.47
2023-02-14T11:48:36.537Z,56.83
2023-02-14T11:51:10.696Z,54.03
2023-02-14T11:53:45.957Z,59.55
2023-02-14T11:56:14.835Z,54.40
2023-02-14T11:58:45.630Z,59.42
2023-02-14T12:01:21.361Z,53.08
2023-02-14T12:03:49.794Z,57.95
2023-02-14T12:06:27.155Z,52.35
2023-02-14T12:09:23.867Z,60.30
2023-02-14T12:12:03.284Z,61.97
2023-02-14T12:14:35.825Z,54.13
2023-02-14T12:17:12.061Z,55.30
2023-02-14T12:19:47.120Z,56.42
2023-02-14T12:22:19.852Z,53.25
2023-02-14T12:25:00.546Z,56.53
2023-02-14T12:27:34.717Z,52.90
2023-02-14T12:30:24.450Z,55.13
2023-02-14T12:32:54.019Z,53.15
2023-02-14T12:35:46.010Z,54.63
2023-02-14T12:38:15.339Z,50.13
2023-02-14T12:40:57.856Z,55.85
2023-02-14T12:43:50.990Z,58.83
2023-02-14T12:46:39.867Z,51.13
2023-02-14T12:49:28.456Z,50.08
2023-02-14T12:52:11.167Z,52.72
2023-02-14T12:55:00.522Z,52.42
2023-02-14T12:57:32.532Z,49.67
2023-02-14T13:00:37.409Z,51.03
2023-02-14T13:49:18.181Z,53.83
2023-02-14T13:52:02.040Z,55.10
2023-02-14T13:54:43.230Z,50.90
2023-02-14T13:57:31.778Z,54.55
2023-02-14T14:00:17.640Z,54.83
2023-02-14T14:02:51.049Z,49.20
2023-02-14T14:05:30.287Z,46.63
2023-02-14T14:08:18.703Z,50.65
2023-02-14T14:10:50.744Z,54.08
2023-02-14T14:13:42.361Z,47.50
2023-02-14T14:16:19.170Z,52.67
2023-02-14T14:18:46.440Z,52.17
2023-02-14T14:21:34.167Z,58.63
2023-02-14T14:24:23.548Z,56.88
2023-02-14T14:27:05.494Z,59.85
2023-02-14T14:29:48.682Z,53.42
2023-02-14T14:32:21.654Z,56.70
2023-02-14T14:34:50.900Z,62.80
2023-02-14T14:37:19.688Z,60.03
2023-02-14T14:39:55.055Z,59.33
2023-02-14T14:42:24.027Z,57.75
2023-02-14T14:44:54.306Z,55.90
2023-02-14T14:47:24.494Z,61.83
2023-02-14T14:49:53.399Z,53.17
2023-02-14T14:52:33.336Z,63.22
2023-02-14T14:55:00.971Z,63.50
2023-02-14T14:57:28.077Z,59.38
2023-02-14T15:00:17.990Z,56.80
2023-02-14T15:02:59.899Z,62.25
2023-02-14T15:05:36.823Z,63.00
2023-02-14T15:08:36.679Z,57.00
2023-02-14T15:11:10.436Z,62.30
2023-02-14T15:13:49.560Z,61.05
2023-02-14T15:16:25.201Z,63.15
2023-02-14T15:18:56.868Z,62.13
2023-02-14T15:21:23.873Z,61.22
2023-02-14T15:23:52.470Z,63.60
2023-02-14T15:26:34.482Z,61.97
2023-02-14T15:29:06.619Z,60.33
2023-02-14T15:31:39.933Z,57.95
2023-02-14T15:34:07.379Z,62.63
2023-02-14T15:36:35.030Z,67.00
2023-02-14T15:39:06.249Z,60.92
2023-02-14T15:41:33.097Z,60.70
2023-02-14T15:44:04.683Z,67.00
2023-02-14T15:46:41.654Z,56.45
2023-02-14T15:49:10.768Z,61.08
2023-02-14T15:51:38.284Z,60.80
2023-02-14T15:54:25.988Z,67.10
2023-02-14T15:56:53.568Z,58.58
2023-02-14T15:59:23.573Z,63.22
2023-02-14T16:02:29.303Z,66.63
2023-02-14T16:05:03.949Z,62.45
2023-02-14T16:07:30.762Z,67.82
2023-02-14T16:10:23.954Z,66.47
2023-02-14T16:13:00.029Z,66.57
2023-02-14T16:15:33.192Z,67.38
2023-02-14T16:18:01.328Z,65.97
2023-02-14T16:20:30.824Z,70.03
2023-02-14T16:23:24.125Z,67.18
2023-02-14T16:25:51.390Z,62.63
2023-02-14T16:28:19.192Z,63.08
2023-02-14T16:30:48.698Z,64.47
2023-02-14T16:33:21.174Z,81.20
2023-02-14T16:38:17.898Z,64.20
2023-02-14T16:41:23.634Z,67.53
2023-02-14T16:43:51.267Z,64.93
2023-02-14T16:46:21.714Z,68.53
2023-02-14T16:49:01.601Z,65.70
2023-02-14T16:51:34.893Z,69.90
2023-02-14T16:54:07.320Z,76.00
2023-02-14T16:57:00.332Z,118.82
2023-02-14T16:59:27.421Z,94.38
2023-02-14T17:01:54.955Z,110.95
2023-02-14T17:04:21.603Z,90.53
2023-02-14T17:06:53.724Z,132.80
2023-02-14T17:09:27.389Z,80.15
2023-02-14T17:11:57.775Z,76.68
2023-02-14T17:14:29.955Z,81.72
2023-02-14T17:16:58.270Z,101.38
2023-02-14T17:19:25.431Z,86.65
2023-02-14T17:21:52.158Z,76.35
2023-02-14T17:24:18.969Z,86.47
2023-02-14T17:26:45.672Z,77.35
2023-02-14T17:29:13.602Z,83.30
2023-02-14T17:31:40.453Z,85.35
2023-02-14T17:34:07.430Z,83.85
2023-02-14T17:36:34.566Z,76.65
2023-02-14T17:39:03.643Z,75.40
2023-02-14T17:41:31.136Z,75.88
2023-02-14T17:44:00.403Z,94.25
2023-02-14T17:46:28.836Z,107.43
2023-02-14T17:48:56.213Z,84.47
2023-02-14T17:51:24.039Z,88.95
2023-02-14T17:53:51.055Z,95.55
2023-02-14T17:56:20.411Z,88.78
2023-02-14T17:58:48.718Z,94.18
2023-02-14T18:01:16.547Z,87.05
2023-02-14T18:03:43.617Z,86.63
2023-02-14T18:06:11.422Z,87.18
2023-02-14T18:08:46.388Z,96.72
2023-02-14T18:11:14.062Z,93.57
2023-02-14T18:13:40.781Z,118.13
2023-02-14T18:16:10.713Z,98.78
2023-02-14T18:18:38.063Z,302.52
2023-02-14T18:21:07.411Z,199.90
2023-02-14T18:23:34.207Z,239.65
2023-02-14T18:26:05.926Z,89.85
2023-02-14T18:28:33.990Z,122.45
2023-02-14T18:31:11.261Z,102.55
2023-02-14T18:33:39.093Z,111.22
2023-02-14T18:36:10.138Z,202.98
2023-02-14T18:38:36.933Z,142.25
2023-02-14T18:41:05.098Z,120.75
2023-02-14T18:43:31.843Z,134.93
2023-02-14T18:46:06.104Z,149.60
2023-02-14T18:48:33.779Z,128.95
2023-02-14T18:51:15.617Z,166.88
2023-02-14T18:53:43.579Z,102.85
2023-02-14T18:56:13.111Z,131.68
2023-02-14T18:58:41.224Z,102.57
2023-02-14T19:01:08.967Z,101.50
2023-02-14T19:03:36.409Z,238.55
2023-02-14T19:06:03.243Z,116.82
2023-02-14T19:08:32.305Z,133.85
2023-02-14T19:10:59.641Z,119.72
2023-02-14T19:13:29.276Z,241.02
2023-02-14T19:15:56.471Z,231.23
2023-02-14T19:18:25.636Z,193.95
2023-02-14T19:20:52.977Z,107.97
2023-02-14T19:23:19.762Z,92.07
2023-02-14T19:25:46.612Z,108.45
2023-02-14T19:28:13.618Z,106.38
2023-02-14T19:30:40.433Z,99.70
2023-02-14T19:33:07.156Z,99.70
2023-02-14T19:35:33.874Z,104.72
2023-02-14T19:38:03.504Z,103.85
2023-02-14T19:40:30.850Z,110.75
2023-02-14T19:42:57.544Z,97.25
2023-02-14T19:45:24.368Z,116.95
2023-02-14T19:47:51.056Z,104.10
2023-02-14T19:50:20.391Z,98.22
2023-02-14T19:52:48.637Z,112.65
2023-02-14T19:55:21.938Z,107.15
2023-02-14T19:57:48.949Z,118.30
2023-02-14T20:00:16.613Z,118.45
2023-02-14T20:02:48.153Z,130.05
2023-02-14T20:05:16.136Z,131.45
2023-02-14T20:07:43.469Z,116.82
2023-02-14T20:10:11.930Z,117.72
2023-02-14T20:12:38.979Z,121.15
2023-02-14T20:15:06.231Z,156.63
2023-02-14T20:17:33.045Z,108.85
2023-02-14T20:19:59.887Z,118.88
2023-02-14T20:22:26.672Z,129.60
2023-02-14T20:24:53.623Z,133.85
2023-02-14T20:27:20.612Z,124.40
2023-02-14T20:29:47.630Z,103.95
2023-02-14T20:32:16.015Z,114.15
2023-02-14T20:34:43.033Z,108.50
2023-02-14T20:37:11.158Z,115.55
2023-02-14T20:39:38.638Z,116.00
2023-02-14T20:42:05.589Z,113.13
2023-02-14T20:44:32.450Z,111.55
2023-02-14T20:46:59.167Z,112.70
2023-02-14T20:49:27.569Z,122.22
2023-02-14T20:51:54.608Z,105.43
2023-02-14T20:54:24.880Z,127.00
2023-02-14T20:56:51.920Z,116.30
2023-02-14T20:59:28.923Z,117.45
2023-02-14T21:01:57.258Z,120.15
2023-02-14T21:04:28.089Z,112.97
2023-02-14T21:06:55.681Z,120.50
2023-02-14T21:09:22.369Z,108.03
2023-02-14T21:11:50.289Z,112.13
2023-02-14T21:14:17.716Z,123.93
2023-02-14T21:16:44.611Z,124.88
2023-02-14T21:19:11.268Z,122.28
2023-02-14T21:21:39.096Z,121.80
2023-02-14T21:24:15.057Z,125.57
2023-02-14T21:26:43.182Z,117.05
2023-02-14T21:29:10.399Z,113.35
2023-02-14T21:31:37.797Z,121.85
2023-02-14T21:34:04.874Z,144.25
2023-02-14T21:36:33.226Z,145.38
2023-02-14T21:39:01.843Z,151.10
2023-02-14T21:41:29.893Z,137.10
2023-02-14T21:43:58.454Z,153.68
2023-02-14T21:46:31.144Z,156.98
2023-02-14T21:51:44.103Z,135.32
2023-02-14T21:54:11.812Z,144.20
2023-02-14T21:56:39.181Z,125.63
2023-02-14T21:59:05.896Z,142.70
2023-02-14T22:01:35.110Z,135.68
2023-02-14T22:04:02.836Z,132.68
2023-02-14T22:06:29.621Z,135.27
2023-02-14T22:08:58.246Z,160.95
2023-02-14T22:11:27.255Z,167.02
2023-02-14T22:13:54.168Z,153.20
2023-02-14T22:16:22.878Z,164.40
2023-02-14T22:18:49.895Z,164.63
2023-02-14T22:21:22.432Z,161.27
2023-02-14T22:23:59.810Z,152.77
2023-02-14T22:26:31.095Z,198.15
2023-02-14T22:29:00.302Z,218.95
2023-02-14T22:31:30.093Z,161.52
2023-02-14T22:33:57.192Z,230.27
2023-02-14T22:36:27.722Z,188.23
2023-02-14T22:38:54.960Z,167.88
2023-02-14T22:41:23.971Z,201.35
2023-02-14T22:43:51.896Z,221.15
2023-02-14T22:46:22.730Z,236.18
2023-02-14T22:48:50.733Z,180.93
2023-02-14T22:51:25.387Z,159.18
2023-02-14T22:53:54.498Z,163.63
2023-02-14T22:56:26.551Z,156.63
2023-02-14T22:58:58.735Z,132.50
2023-02-14T23:01:25.896Z,126.43
2023-02-14T23:03:58.003Z,126.25
2023-02-14T23:06:26.648Z,126.65
2023-02-14T23:08:54.638Z,122.78
2023-02-14T23:11:23.994Z,122.55
2023-02-14T23:14:09.215Z,127.07
2023-02-14T23:16:54.579Z,142.02
2023-02-14T23:19:43.010Z,119.28
2023-02-14T23:22:15.086Z,126.65
2023-02-14T23:24:42.416Z,119.35
2023-02-14T23:27:09.443Z,132.48
2023-02-14T23:29:37.023Z,124.20
2023-02-14T23:32:04.985Z,132.05
2023-02-14T23:34:33.779Z,140.32
2023-02-14T23:37:00.765Z,140.38
2023-02-14T23:39:27.553Z,132.25
2023-02-14T23:41:54.324Z,139.63
2023-02-14T23:44:22.012Z,152.40
2023-02-14T23:46:50.561Z,153.43
2023-02-14T23:49:17.818Z,151.52
2023-02-14T23:51:45.899Z,139.43
2023-02-14T23:54:13.319Z,130.50
2023-02-14T23:56:40.528Z,122.25
2023-02-14T23:59:07.982Z,127.15
